createdAt,value
2019-04-01T00:00:51.829Z,36.37
2019-04-01T00:03:20.244Z,34.97
2019-04-01T00:05:48.736Z,39.33
2019-04-01T00:08:17.126Z,38.90
2019-04-01T00:10:45.534Z,36.60
2019-04-01T00:13:14.892Z,34.90
2019-04-01T00:15:43.286Z,37.53
2019-04-01T00:18:11.702Z,35.30
2019-04-01T00:20:40.122Z,35.93
2019-04-01T00:23:08.633Z,33.97
2019-04-01T00:25:37.206Z,37.30
2019-04-01T00:28:05.619Z,37.40
2019-04-01T00:30:34.027Z,38.07
2019-04-01T00:33:02.709Z,36.70
2019-04-01T00:35:31.123Z,35.90
2019-04-01T00:37:59.552Z,37.37
2019-04-01T00:40:27.969Z,35.07
2019-04-01T00:43:13.058Z,37.23
2019-04-01T00:45:43.125Z,34.80
2019-04-01T00:48:12.464Z,36.77
2019-04-01T00:50:40.871Z,35.77
2019-04-01T00:53:09.278Z,35.97
2019-04-01T00:55:37.691Z,34.73
2019-04-01T00:58:06.086Z,36.90
2019-04-01T01:00:34.507Z,36.67
2019-04-01T01:03:03.911Z,35.70
2019-04-01T01:05:32.322Z,35.47
2019-04-01T01:08:00.731Z,35.53
2019-04-01T01:10:29.197Z,34.63
2019-04-01T01:12:57.626Z,33.67
2019-04-01T01:15:26.037Z,35.23
2019-04-01T01:17:54.474Z,34.00
2019-04-01T01:20:22.853Z,36.10
2019-04-01T01:22:51.292Z,35.77
2019-04-01T01:25:19.756Z,35.77
2019-04-01T01:27:48.167Z,36.00
2019-04-01T01:30:16.633Z,38.40
2019-04-01T01:32:45.045Z,33.80
2019-04-01T01:35:13.625Z,35.47
2019-04-01T01:37:42.043Z,35.07
2019-04-01T01:40:10.525Z,35.67
2019-04-01T01:42:38.933Z,34.50
2019-04-01T01:45:07.663Z,35.20
2019-04-01T01:47:36.083Z,35.20
2019-04-01T01:50:06.609Z,33.63
2019-04-01T01:52:35.093Z,32.57
2019-04-01T01:55:03.493Z,33.07
2019-04-01T01:57:31.908Z,32.73
2019-04-01T02:00:00.502Z,33.47
2019-04-01T02:02:29.008Z,33.63
2019-04-01T02:04:57.431Z,33.93
2019-04-01T02:07:25.889Z,36.23
2019-04-01T02:09:54.316Z,34.67
2019-04-01T02:12:22.705Z,37.17
2019-04-01T02:14:51.111Z,33.97
2019-04-01T02:17:19.513Z,35.60
2019-04-01T02:19:47.916Z,34.70
2019-04-01T02:22:16.345Z,36.00
2019-04-01T02:24:44.732Z,36.73
2019-04-01T02:27:13.153Z,36.50
2019-04-01T02:29:41.538Z,34.23
2019-04-01T02:32:09.968Z,35.77
2019-04-01T02:34:38.382Z,35.97
2019-04-01T02:37:06.786Z,37.10
2019-04-01T02:39:35.188Z,34.83
2019-04-01T02:42:03.967Z,35.93
2019-04-01T02:44:32.377Z,34.63
2019-04-01T02:47:00.777Z,35.77
2019-04-01T02:49:29.174Z,34.40
2019-04-01T02:51:57.581Z,35.43
2019-04-01T02:54:26.016Z,35.77
2019-04-01T02:56:54.577Z,51.00
2019-04-01T02:59:23.839Z,46.63
2019-04-01T03:02:04.499Z,39.07
2019-04-01T03:04:32.893Z,38.50
2019-04-01T03:07:01.286Z,37.20
2019-04-01T03:09:29.714Z,36.10
2019-04-01T03:11:58.107Z,37.47
2019-04-01T03:14:26.524Z,35.73
2019-04-01T03:16:54.894Z,34.70
2019-04-01T03:19:23.311Z,38.03
2019-04-01T03:21:51.747Z,35.07
2019-04-01T03:24:20.221Z,35.17
2019-04-01T03:26:48.636Z,36.00
2019-04-01T03:29:17.053Z,36.13
2019-04-01T03:31:57.617Z,41.47
2019-04-01T03:34:26.089Z,43.17
2019-04-01T03:36:56.416Z,39.30
2019-04-01T03:39:24.814Z,35.27
2019-04-01T03:41:53.206Z,37.07
2019-04-01T03:44:21.622Z,37.47
2019-04-01T03:46:50.024Z,35.87
2019-04-01T03:49:19.357Z,37.10
2019-04-01T03:51:47.752Z,36.53
2019-04-01T03:54:16.173Z,37.43
2019-04-01T03:56:44.578Z,36.70
2019-04-01T03:59:12.999Z,38.20
2019-04-01T04:01:41.396Z,35.97
2019-04-01T04:04:09.806Z,37.77
2019-04-01T04:06:39.118Z,38.10
2019-04-01T04:09:07.535Z,42.07
2019-04-01T04:11:35.941Z,41.90
2019-04-01T04:14:04.354Z,38.83
2019-04-01T04:16:32.747Z,37.33
2019-04-01T04:19:01.149Z,34.90
2019-04-01T04:21:29.558Z,36.10
2019-04-01T04:23:57.966Z,39.00
2019-04-01T04:26:26.374Z,40.20
2019-04-01T04:28:54.781Z,38.40
2019-04-01T04:31:23.191Z,38.73
2019-04-01T04:33:51.602Z,39.20
2019-04-01T04:36:19.992Z,39.00
2019-04-01T04:38:48.410Z,39.27
2019-04-01T04:41:16.826Z,36.57
2019-04-01T04:43:46.164Z,39.10
2019-04-01T04:46:14.570Z,41.80
2019-04-01T04:48:42.959Z,38.97
2019-04-01T04:51:11.376Z,39.20
2019-04-01T04:53:39.776Z,38.57
2019-04-01T04:56:08.177Z,40.27
2019-04-01T04:58:36.583Z,38.77
2019-04-01T05:01:05.147Z,37.60
2019-04-01T05:03:33.535Z,39.70
2019-04-01T05:06:01.937Z,38.63
2019-04-01T05:08:30.337Z,43.37
2019-04-01T05:10:58.765Z,40.20
2019-04-01T05:13:27.153Z,39.23
2019-04-01T05:15:55.583Z,41.53
2019-04-01T05:18:24.060Z,41.53
2019-04-01T05:20:53.130Z,40.60
2019-04-01T05:23:21.994Z,43.93
2019-04-01T05:25:51.412Z,39.10
2019-04-01T05:28:20.483Z,40.77
2019-04-01T05:30:50.805Z,39.07
2019-04-01T05:33:21.982Z,44.53
2019-04-01T05:35:50.473Z,42.70
2019-04-01T05:38:19.115Z,40.70
2019-04-01T05:40:48.642Z,49.20
2019-04-01T05:43:17.112Z,60.23
2019-04-01T05:45:45.523Z,57.70
2019-04-01T05:48:14.979Z,53.60
2019-04-01T05:50:43.549Z,48.00
2019-04-01T05:53:12.033Z,43.80
2019-04-01T05:55:40.463Z,42.40
2019-04-01T05:58:08.867Z,39.80
2019-04-01T06:00:48.040Z,37.70
2019-04-01T06:03:16.414Z,43.10
2019-04-01T06:05:44.882Z,47.70
2019-04-01T06:08:13.354Z,41.97
2019-04-01T06:10:41.843Z,39.60
2019-04-01T06:13:10.238Z,38.67
2019-04-01T06:15:38.728Z,38.37
2019-04-01T06:18:07.129Z,37.90
2019-04-01T06:20:35.529Z,39.10
2019-04-01T06:23:04.070Z,43.40
2019-04-01T06:25:32.482Z,48.20
2019-04-01T06:28:00.946Z,44.27
2019-04-01T06:30:29.417Z,39.20
2019-04-01T06:32:57.954Z,37.60
2019-04-01T06:35:26.427Z,39.70
2019-04-01T06:37:54.882Z,39.17
2019-04-01T06:40:23.355Z,36.97
2019-04-01T06:43:11.124Z,37.77
2019-04-01T06:45:39.617Z,37.77
2019-04-01T06:48:07.998Z,39.03
2019-04-01T06:50:36.416Z,40.83
2019-04-01T06:53:13.644Z,37.60
2019-04-01T06:55:42.120Z,38.10
2019-04-01T06:58:12.117Z,36.10
2019-04-01T07:00:40.720Z,38.80
2019-04-01T07:03:09.128Z,37.60
2019-04-01T07:05:37.605Z,38.83
2019-04-01T07:08:06.027Z,38.70
2019-04-01T07:10:35.368Z,35.77
2019-04-01T07:13:03.857Z,36.27
2019-04-01T07:15:32.256Z,37.97
2019-04-01T07:18:01.048Z,35.83
2019-04-01T07:20:29.439Z,38.90
2019-04-01T07:22:57.932Z,37.50
2019-04-01T07:25:28.046Z,35.30
2019-04-01T07:27:56.472Z,36.07
2019-04-01T07:30:26.807Z,34.67
2019-04-01T07:32:55.213Z,35.03
2019-04-01T07:35:23.632Z,35.53
2019-04-01T07:37:52.383Z,33.53
2019-04-01T07:40:20.868Z,33.83
2019-04-01T07:42:49.349Z,36.03
2019-04-01T07:45:17.821Z,33.57
2019-04-01T07:47:46.416Z,34.70
2019-04-01T07:50:15.283Z,35.70
2019-04-01T07:53:03.149Z,34.80
2019-04-01T07:55:31.629Z,36.47
2019-04-01T07:58:00.079Z,32.50
2019-04-01T08:00:28.462Z,36.00
2019-04-01T08:02:57.248Z,36.20
2019-04-01T08:05:26.227Z,36.17
2019-04-01T08:07:55.132Z,34.13
2019-04-01T08:10:23.536Z,36.63
2019-04-01T08:12:51.961Z,34.17
2019-04-01T08:15:21.527Z,34.77
2019-04-01T08:17:50.112Z,35.57
2019-04-01T08:20:18.683Z,36.17
2019-04-01T08:22:47.464Z,34.70
2019-04-01T08:25:15.887Z,34.20
2019-04-01T08:27:44.300Z,35.00
2019-04-01T08:30:12.850Z,34.47
2019-04-01T08:32:41.329Z,33.70
2019-04-01T08:35:10.069Z,32.87
2019-04-01T08:37:40.514Z,34.50
2019-04-01T08:40:08.939Z,36.30
2019-04-01T08:42:38.267Z,33.97
2019-04-01T08:45:08.109Z,32.97
2019-04-01T08:47:36.598Z,34.23
2019-04-01T08:50:06.760Z,34.20
2019-04-01T08:52:35.679Z,32.53
2019-04-01T08:55:06.435Z,34.47
2019-04-01T08:57:34.999Z,32.13
2019-04-01T09:00:04.629Z,32.20
2019-04-01T09:02:33.047Z,33.20
2019-04-01T09:05:01.444Z,33.73
2019-04-01T09:07:30.000Z,33.87
2019-04-01T09:09:58.530Z,31.73
2019-04-01T09:12:47.805Z,31.77
2019-04-01T09:15:16.338Z,34.27
2019-04-01T09:17:44.763Z,31.27
2019-04-01T09:20:13.230Z,34.30
2019-04-01T09:22:41.668Z,31.83
2019-04-01T09:25:10.076Z,31.13
2019-04-01T09:27:38.498Z,31.53
2019-04-01T09:30:07.857Z,32.57
2019-04-01T09:32:37.192Z,31.07
2019-04-01T09:35:07.137Z,31.00
2019-04-01T09:37:35.551Z,35.17
2019-04-01T09:40:24.807Z,31.40
2019-04-01T09:42:53.228Z,32.17
2019-04-01T09:45:21.652Z,31.50
2019-04-01T09:47:50.057Z,31.37
2019-04-01T09:50:26.520Z,33.40
2019-04-01T09:52:55.023Z,31.50
2019-04-01T09:55:23.429Z,30.10
2019-04-01T09:57:51.842Z,33.17
2019-04-01T10:00:20.684Z,31.33
2019-04-01T10:02:49.403Z,32.03
2019-04-01T10:05:17.843Z,31.97
2019-04-01T10:07:46.366Z,32.70
2019-04-01T10:10:15.098Z,33.53
2019-04-01T10:12:43.521Z,32.00
2019-04-01T10:15:12.473Z,33.60
2019-04-01T10:17:40.939Z,31.80
2019-04-01T10:20:09.486Z,30.40
2019-04-01T10:22:37.879Z,30.67
2019-04-01T10:25:06.450Z,29.53
2019-04-01T10:27:34.865Z,29.33
2019-04-01T10:30:04.924Z,30.23
2019-04-01T10:32:33.328Z,29.20
2019-04-01T10:35:01.761Z,31.07
2019-04-01T10:37:30.167Z,32.37
2019-04-01T10:40:00.403Z,36.93
2019-04-01T10:42:28.715Z,32.27
2019-04-01T10:44:57.131Z,32.50
2019-04-01T10:47:25.585Z,30.00
2019-04-01T10:49:54.150Z,32.53
2019-04-01T10:52:22.615Z,29.93
2019-04-01T10:54:51.062Z,30.40
2019-04-01T10:57:19.466Z,31.00
2019-04-01T10:59:47.973Z,31.70
2019-04-01T11:02:18.418Z,30.40
2019-04-01T11:04:46.598Z,30.73
2019-04-01T11:07:15.066Z,30.70
2019-04-01T11:09:43.507Z,29.90
2019-04-01T11:12:11.916Z,28.67
2019-04-01T11:15:01.596Z,32.33
2019-04-01T11:17:29.991Z,30.63
2019-04-01T11:19:58.582Z,29.47
2019-04-01T11:22:26.997Z,29.20
2019-04-01T11:24:55.427Z,29.97
2019-04-01T11:27:23.828Z,29.70
2019-04-01T11:29:52.246Z,28.47
2019-04-01T11:32:20.876Z,27.17
2019-04-01T11:34:55.870Z,29.13
2019-04-01T11:37:22.507Z,27.77
2019-04-01T11:39:51.023Z,30.20
2019-04-01T11:42:19.446Z,27.50
2019-04-01T11:44:47.891Z,28.77
2019-04-01T11:47:22.611Z,28.30
2019-04-01T11:49:51.082Z,28.63
2019-04-01T11:52:19.588Z,26.27
2019-04-01T11:54:48.025Z,27.40
2019-04-01T11:57:16.418Z,26.10
2019-04-01T11:59:44.846Z,27.10
2019-04-01T12:02:13.247Z,27.20
2019-04-01T12:04:41.659Z,27.73
2019-04-01T12:07:10.056Z,26.97
2019-04-01T12:09:38.480Z,27.20
2019-04-01T12:12:06.874Z,29.20
2019-04-01T12:14:35.603Z,25.40
2019-04-01T12:17:04.005Z,25.70
2019-04-01T12:19:32.436Z,23.97
2019-04-01T12:22:00.843Z,26.40
2019-04-01T12:24:29.259Z,23.57
2019-04-01T12:26:57.659Z,26.80
2019-04-01T12:29:26.172Z,24.77
2019-04-01T12:31:54.568Z,25.77
2019-04-01T12:34:23.260Z,25.97
2019-04-01T12:36:51.662Z,26.67
2019-04-01T12:39:20.096Z,28.47
2019-04-01T12:41:48.517Z,26.80
2019-04-01T12:44:16.938Z,26.33
2019-04-01T12:46:46.375Z,25.87
2019-04-01T12:49:14.855Z,26.10
2019-04-01T12:51:43.322Z,26.00
2019-04-01T12:54:11.745Z,25.07
2019-04-01T12:56:40.161Z,24.90
2019-04-01T12:59:08.571Z,24.17
2019-04-01T13:01:36.992Z,23.23
2019-04-01T13:04:05.483Z,25.10
2019-04-01T13:06:33.909Z,24.57
2019-04-01T13:09:04.088Z,27.40
2019-04-01T13:11:32.596Z,26.00
2019-04-01T13:14:00.989Z,25.37
2019-04-01T13:16:29.480Z,25.03
2019-04-01T13:18:57.881Z,25.20
2019-04-01T13:21:26.323Z,23.93
2019-04-01T13:23:54.784Z,24.10
2019-04-01T13:26:23.207Z,24.17
2019-04-01T13:28:51.608Z,24.17
2019-04-01T13:31:20.042Z,24.30
2019-04-01T13:33:48.458Z,23.47
2019-04-01T13:36:16.886Z,23.87
2019-04-01T13:38:45.299Z,22.90
2019-04-01T13:41:15.620Z,21.47
2019-04-01T13:43:43.884Z,20.57
2019-04-01T13:46:12.307Z,22.67
2019-04-01T13:48:57.874Z,23.60
2019-04-01T13:51:22.975Z,20.30
2019-04-01T13:53:51.377Z,21.83
2019-04-01T13:56:19.813Z,19.50
2019-04-01T13:58:51.312Z,20.50
2019-04-01T14:01:19.725Z,18.97
2019-04-01T14:03:48.195Z,20.40
2019-04-01T14:06:16.631Z,19.60
2019-04-01T14:08:45.025Z,17.60
2019-04-01T14:11:20.676Z,18.43
2019-04-01T14:13:49.417Z,18.30
2019-04-01T14:16:17.836Z,19.03
2019-04-01T14:18:46.245Z,17.47
2019-04-01T14:21:17.477Z,18.37
2019-04-01T14:23:44.789Z,17.23
2019-04-01T14:26:13.467Z,18.90
2019-04-01T14:28:41.874Z,17.10
2019-04-01T14:31:10.297Z,17.80
2019-04-01T14:33:58.471Z,17.53
2019-04-01T14:36:27.362Z,18.60
2019-04-01T14:38:56.724Z,19.10
2019-04-01T14:41:25.153Z,19.80
2019-04-01T14:43:55.133Z,19.60
2019-04-01T14:46:24.201Z,18.60
2019-04-01T14:48:52.643Z,18.03
2019-04-01T14:51:21.059Z,18.40
2019-04-01T14:53:49.503Z,19.87
2019-04-01T14:56:17.933Z,18.77
2019-04-01T14:58:46.357Z,18.50
2019-04-01T15:01:14.843Z,17.87
2019-04-01T15:03:43.316Z,17.27
2019-04-01T15:06:11.729Z,17.70
2019-04-01T15:08:40.140Z,20.00
2019-04-01T15:11:12.226Z,18.80
2019-04-01T15:13:40.842Z,21.07
2019-04-01T15:16:09.245Z,18.97
2019-04-01T15:18:41.273Z,17.80
2019-04-01T15:21:11.657Z,17.90
2019-04-01T15:23:39.960Z,20.00
2019-04-01T15:26:08.391Z,18.70
2019-04-01T15:28:45.884Z,19.73
2019-04-01T15:31:14.304Z,17.80
2019-04-01T15:33:42.715Z,19.10
2019-04-01T15:36:12.525Z,20.10
2019-04-01T15:38:40.937Z,18.63
2019-04-01T15:41:09.385Z,19.00
2019-04-01T15:43:37.822Z,19.10
2019-04-01T15:46:06.572Z,19.70
2019-04-01T15:48:36.617Z,19.77
2019-04-01T15:51:05.222Z,18.37
2019-04-01T15:53:34.733Z,19.83
2019-04-01T15:56:03.396Z,18.20
2019-04-01T15:58:32.788Z,18.70
2019-04-01T16:01:01.329Z,19.67
2019-04-01T16:03:30.095Z,19.73
2019-04-01T16:05:58.500Z,19.67
2019-04-01T16:08:26.925Z,20.00
2019-04-01T16:10:55.331Z,18.77
2019-04-01T16:13:23.759Z,19.27
2019-04-01T16:15:52.202Z,18.67
2019-04-01T16:18:20.659Z,18.97
2019-04-01T16:20:49.058Z,19.30
2019-04-01T16:23:18.924Z,18.70
2019-04-01T16:25:47.649Z,20.30
2019-04-01T16:28:16.137Z,19.77
2019-04-01T16:30:44.535Z,18.87
2019-04-01T16:33:13.050Z,18.93
2019-04-01T16:35:41.439Z,18.40
2019-04-01T16:38:09.941Z,18.47
2019-04-01T16:40:38.329Z,17.70
2019-04-01T16:43:26.096Z,17.27
2019-04-01T16:45:56.011Z,18.17
2019-04-01T16:48:26.425Z,18.30
2019-04-01T16:50:54.828Z,17.40
2019-04-01T16:53:23.248Z,19.10
2019-04-01T16:55:51.725Z,17.60
2019-04-01T16:58:20.126Z,18.27
2019-04-01T17:00:48.527Z,18.30
2019-04-01T17:03:16.972Z,18.40
2019-04-01T17:05:46.813Z,18.93
2019-04-01T17:08:15.438Z,17.93
2019-04-01T17:10:43.891Z,18.57
2019-04-01T17:13:12.304Z,19.47
2019-04-01T17:15:40.707Z,17.80
2019-04-01T17:18:09.101Z,18.60
2019-04-01T17:20:37.540Z,18.67
2019-04-01T17:23:06.046Z,18.80
2019-04-01T17:25:34.557Z,19.07
2019-04-01T17:28:02.966Z,17.77
2019-04-01T17:30:31.474Z,18.40
2019-04-01T17:32:59.904Z,17.27
2019-04-01T17:35:29.340Z,19.57
2019-04-01T17:37:57.740Z,22.30
2019-04-01T17:40:28.166Z,20.90
2019-04-01T17:42:56.569Z,18.30
2019-04-01T17:45:30.881Z,18.10
2019-04-01T17:48:00.644Z,20.40
2019-04-01T17:50:29.466Z,18.60
2019-04-01T17:52:58.962Z,19.23
2019-04-01T17:55:27.397Z,19.40
2019-04-01T17:57:55.777Z,20.30
2019-04-01T18:00:25.922Z,19.87
2019-04-01T18:02:54.331Z,21.73
2019-04-01T18:05:22.898Z,19.93
2019-04-01T18:07:51.343Z,19.90
2019-04-01T18:10:20.625Z,18.13
2019-04-01T18:12:49.990Z,19.70
2019-04-01T18:15:20.677Z,19.73
2019-04-01T18:17:48.668Z,20.70
2019-04-01T18:20:20.035Z,18.87
2019-04-01T18:22:47.390Z,23.70
2019-04-01T18:25:15.868Z,22.37
2019-04-01T18:27:44.357Z,19.50
2019-04-01T18:30:13.397Z,19.30
2019-04-01T18:32:41.823Z,19.87
2019-04-01T18:35:10.361Z,19.20
2019-04-01T18:37:38.797Z,20.07
2019-04-01T18:40:07.347Z,20.43
2019-04-01T18:42:35.766Z,20.00
2019-04-01T18:45:06.899Z,21.70
2019-04-01T18:47:38.650Z,21.77
2019-04-01T18:50:06.906Z,24.10
2019-04-01T18:52:35.415Z,20.73
2019-04-01T18:55:07.885Z,25.17
2019-04-01T18:57:35.717Z,23.80
2019-04-01T19:00:06.618Z,23.87
2019-04-01T19:02:35.048Z,24.67
2019-04-01T19:05:03.573Z,22.43
2019-04-01T19:07:32.012Z,27.40
2019-04-01T19:10:06.329Z,23.57
2019-04-01T19:12:31.485Z,24.70
2019-04-01T19:15:02.376Z,25.53
2019-04-01T19:17:30.028Z,25.40
2019-04-01T19:19:59.356Z,25.00
2019-04-01T19:22:27.801Z,25.00
2019-04-01T19:24:57.025Z,24.97
2019-04-01T19:27:25.528Z,24.40
2019-04-01T19:29:53.917Z,24.60
2019-04-01T19:32:22.410Z,25.00
2019-04-01T19:34:50.815Z,24.87
2019-04-01T19:37:19.245Z,25.03
2019-04-01T19:39:47.637Z,24.03
2019-04-01T19:42:16.053Z,25.90
2019-04-01T19:44:46.424Z,26.70
2019-04-01T19:47:15.131Z,26.13
2019-04-01T19:49:43.611Z,23.67
2019-04-01T19:52:12.028Z,28.30
2019-04-01T19:54:40.445Z,24.40
2019-04-01T19:57:08.930Z,23.97
2019-04-01T19:59:37.326Z,25.10
2019-04-01T20:02:05.759Z,24.20
2019-04-01T20:04:34.180Z,25.40
2019-04-01T20:07:02.927Z,26.30
2019-04-01T20:09:31.401Z,26.37
2019-04-01T20:11:59.823Z,28.17
2019-04-01T20:14:28.514Z,26.63
2019-04-01T20:16:56.941Z,27.30
2019-04-01T20:19:25.339Z,28.60
2019-04-01T20:21:53.742Z,25.47
2019-04-01T20:24:22.395Z,27.17
2019-04-01T20:26:50.809Z,28.13
2019-04-01T20:29:19.222Z,26.70
2019-04-01T20:31:47.637Z,27.17
2019-04-01T20:34:20.047Z,26.30
2019-04-01T20:36:46.186Z,28.20
2019-04-01T20:39:14.598Z,28.63
2019-04-01T20:41:43.034Z,28.60
2019-04-01T20:44:12.395Z,28.30
2019-04-01T20:46:40.863Z,28.13
2019-04-01T20:49:09.283Z,27.17
2019-04-01T20:51:37.692Z,27.77
2019-04-01T20:54:06.168Z,27.50
2019-04-01T20:56:34.607Z,26.83
2019-04-01T20:59:03.070Z,27.00
2019-04-01T21:01:31.550Z,28.30
2019-04-01T21:03:59.945Z,28.00
2019-04-01T21:06:28.352Z,29.87
2019-04-01T21:08:56.765Z,29.57
2019-04-01T21:11:25.162Z,27.00
2019-04-01T21:13:53.596Z,28.40
2019-04-01T21:16:22.004Z,28.10
2019-04-01T21:18:50.415Z,27.77
2019-04-01T21:21:18.817Z,26.80
2019-04-01T21:23:47.238Z,27.17
2019-04-01T21:26:15.314Z,29.40
2019-04-01T21:28:43.728Z,26.80
2019-04-01T21:31:12.135Z,26.80
2019-04-01T21:33:41.158Z,28.40
2019-04-01T21:36:10.613Z,27.83
2019-04-01T21:38:39.036Z,29.40
2019-04-01T21:41:07.432Z,27.90
2019-04-01T21:43:35.845Z,28.20
2019-04-01T21:46:04.322Z,30.40
2019-04-01T21:48:32.749Z,30.53
2019-04-01T21:51:01.141Z,27.67
2019-04-01T21:53:31.046Z,30.83
2019-04-01T21:55:59.767Z,31.83
2019-04-01T21:58:28.211Z,31.77
2019-04-01T22:00:57.674Z,29.57
2019-04-01T22:03:26.150Z,31.93
2019-04-01T22:05:55.550Z,31.87
2019-04-01T22:08:23.988Z,31.57
2019-04-01T22:10:52.384Z,34.10
2019-04-01T22:13:20.803Z,32.50
2019-04-01T22:15:50.023Z,32.13
2019-04-01T22:18:18.915Z,31.20
2019-04-01T22:20:47.593Z,31.70
2019-04-01T22:23:16.041Z,32.10
2019-04-01T22:25:44.483Z,32.73
2019-04-01T22:28:12.898Z,31.70
2019-04-01T22:30:41.286Z,34.90
2019-04-01T22:33:11.117Z,34.30
2019-04-01T22:35:41.583Z,31.27
2019-04-01T22:38:09.835Z,32.07
2019-04-01T22:40:38.250Z,32.40
2019-04-01T22:43:06.663Z,31.80
2019-04-01T22:45:35.062Z,29.80
2019-04-01T22:48:03.471Z,30.77
2019-04-01T22:50:31.873Z,31.57
2019-04-01T22:53:00.279Z,30.07
2019-04-01T22:55:28.766Z,30.00
2019-04-01T22:57:57.177Z,30.20
2019-04-01T23:00:25.706Z,31.63
2019-04-01T23:02:54.116Z,32.20
2019-04-01T23:05:22.510Z,31.50
2019-04-01T23:07:50.935Z,31.57
2019-04-01T23:10:19.377Z,32.40
2019-04-01T23:12:47.841Z,29.50
2019-04-01T23:15:16.395Z,31.73
2019-04-01T23:17:47.469Z,28.37
2019-04-01T23:20:15.878Z,29.93
2019-04-01T23:22:44.371Z,30.37
2019-04-01T23:25:12.951Z,29.80
2019-04-01T23:27:41.360Z,28.90
2019-04-01T23:30:11.679Z,28.47
2019-04-01T23:32:41.895Z,30.07
2019-04-01T23:35:12.255Z,29.70
2019-04-01T23:37:41.023Z,28.87
2019-04-01T23:40:09.679Z,28.37
2019-04-01T23:42:38.303Z,28.03
2019-04-01T23:45:07.228Z,30.70
2019-04-01T23:47:35.610Z,28.20
2019-04-01T23:50:06.466Z,29.80
2019-04-01T23:52:34.867Z,30.07
2019-04-01T23:55:04.417Z,29.30
2019-04-01T23:57:32.814Z,29.27
